Accueil
METAR-TAF:

METAR-TAF

Aéroports :

Red Dog Mine, Alaska, États-Unis

latitude: 68-01-56N, longitude: 162-53-57W, altitude: 295 m

Observation

Le bulletin a été fait il y a 13 heures et 28 minutes, à 21:57 UTC
Vent 10 kt de est
Température -9°C
Humidité 40%
Pression 1015 hPa
Visibilité: 24.1 km
Ciel clair

METAR: PADG 172157Z 10010KT 15SM SKC M09/M20 A2996

Heure: 02:25 (11:25 UTC)


TAF: absent

Observations et prévisions météorologiques de plus de 4000 aéroports (messages METAR et TAF).

Les stations disponibles sont représentées par des disques jaunes et rouges sur la carte.

Passer la souris dessus pour voir le nom de la station.

Cliquer dessus pour voir les observations et prévisions météorologiques.

Pour changer de carte: cliquez sur les boutons verts avec une croix noire pour zoomer, sur le bouton vert avec un tiret pour effectuer un zoom arrière, ou sur les flèches vertes pour les cartes adjacentes.


METAR-TAF: